Terminal Aerodrome Forecast
Issued by NWS Missoula, MT

Home | Current Version | Previous Version | Text Only | Print | Product List | Glossary On
Versions: 1 2 3 4 5 6 7 8 9 10 11 12 13 14 15 16 17 18 19 20
000
FTUS45 KMSO 270536
TAFMSO
TAF
KMSO 270536Z 2706/2806 VRB03KT P6SM VCSH BKN050
     FM271700 13005KT 4SM -SN BR SCT010 OVC025
     FM280300 VRB03KT 2SM -SN BR SCT006 OVC015=

USA.gov is the U.S. government's official web portal to all federal, state and local government web resources and services.